createdAt,value
2023-03-31T00:00:19.970Z,4.22
2023-03-31T00:02:47.425Z,3.13
2023-03-31T00:05:17.894Z,4.22
2023-03-31T00:07:46.082Z,4.68
2023-03-31T00:10:17.809Z,3.97
2023-03-31T00:12:46.431Z,3.95
2023-03-31T00:15:14.112Z,3.60
2023-03-31T00:17:43.425Z,3.65
2023-03-31T00:20:12.388Z,4.40
2023-03-31T00:22:42.384Z,3.67
2023-03-31T00:25:11.072Z,3.15
2023-03-31T00:27:38.679Z,3.15
2023-03-31T00:30:06.788Z,3.53
2023-03-31T00:32:34.262Z,3.40
2023-03-31T00:35:02.354Z,2.97
2023-03-31T00:37:30.282Z,3.90
2023-03-31T00:39:58.198Z,2.90
2023-03-31T00:42:26.056Z,3.20
2023-03-31T00:45:12.704Z,2.92
2023-03-31T00:47:46.971Z,3.42
2023-03-31T00:50:20.374Z,3.20
2023-03-31T00:52:51.209Z,3.95
2023-03-31T00:55:24.253Z,2.80
2023-03-31T00:57:53.673Z,2.88
2023-03-31T01:00:23.913Z,2.88
2023-03-31T01:02:55.995Z,3.40
2023-03-31T01:05:26.067Z,3.55
2023-03-31T01:07:54.573Z,2.60
2023-03-31T01:10:23.098Z,3.83
2023-03-31T01:12:52.382Z,3.92
2023-03-31T01:15:20.095Z,3.17
2023-03-31T01:17:49.557Z,3.40
2023-03-31T01:20:19.942Z,3.35
2023-03-31T01:22:54.416Z,3.33
2023-03-31T01:25:21.890Z,3.83
2023-03-31T01:28:11.077Z,3.47
2023-03-31T01:31:07.450Z,4.60
2023-03-31T01:33:53.891Z,3.97
2023-03-31T01:36:33.342Z,3.63
2023-03-31T01:39:01.149Z,2.75
2023-03-31T01:41:42.875Z,3.85
2023-03-31T01:44:21.756Z,3.60
2023-03-31T01:46:54.238Z,3.42
2023-03-31T01:49:40.725Z,4.13
2023-03-31T01:52:20.362Z,3.30
2023-03-31T01:55:04.301Z,3.60
2023-03-31T01:57:35.998Z,2.72
2023-03-31T02:00:11.365Z,3.30
2023-03-31T02:02:47.036Z,4.47
2023-03-31T02:05:16.576Z,3.20
2023-03-31T02:08:06.249Z,3.63
2023-03-31T02:10:33.917Z,3.67
2023-03-31T02:13:03.448Z,3.03
2023-03-31T02:15:34.555Z,4.15
2023-03-31T02:20:32.438Z,3.55
2023-03-31T02:23:00.225Z,3.13
2023-03-31T02:25:32.559Z,3.75
2023-03-31T02:28:05.978Z,3.33
2023-03-31T02:30:38.328Z,4.70
2023-03-31T02:33:05.910Z,3.47
2023-03-31T02:35:34.934Z,4.82
2023-03-31T02:38:03.478Z,3.25
2023-03-31T02:40:30.955Z,3.53
2023-03-31T02:42:59.884Z,3.90
2023-03-31T02:45:44.310Z,3.50
2023-03-31T02:48:23.976Z,4.32
2023-03-31T02:51:03.991Z,3.20
2023-03-31T02:53:31.422Z,4.05
2023-03-31T02:56:13.918Z,3.92
2023-03-31T02:58:55.786Z,4.43
2023-03-31T03:01:35.841Z,3.70
2023-03-31T03:04:11.108Z,4.05
2023-03-31T03:07:09.878Z,4.18
2023-03-31T03:09:46.121Z,3.72
2023-03-31T03:12:16.636Z,3.75
2023-03-31T03:14:44.093Z,4.65
2023-03-31T03:17:16.054Z,5.72
2023-03-31T03:19:43.684Z,3.95
2023-03-31T03:22:11.097Z,4.40
2023-03-31T03:24:39.789Z,4.20
2023-03-31T03:27:07.231Z,4.97
2023-03-31T03:29:34.703Z,4.43
2023-03-31T03:32:02.222Z,5.15
2023-03-31T03:34:29.868Z,5.18
2023-03-31T03:36:57.322Z,4.93
2023-03-31T03:39:24.812Z,4.30
2023-03-31T03:41:52.246Z,4.88
2023-03-31T03:44:19.748Z,5.30
2023-03-31T03:46:47.452Z,4.63
2023-03-31T03:49:15.050Z,4.15
2023-03-31T03:51:42.463Z,4.13
2023-03-31T03:54:09.970Z,4.35
2023-03-31T03:56:37.421Z,4.38
2023-03-31T03:59:04.910Z,5.05
2023-03-31T04:01:32.417Z,4.00
2023-03-31T04:03:59.851Z,4.82
2023-03-31T04:06:27.277Z,4.45
2023-03-31T04:08:54.948Z,4.88
2023-03-31T04:11:22.674Z,4.68
2023-03-31T04:13:50.152Z,3.75
2023-03-31T04:16:17.639Z,4.05
2023-03-31T04:18:45.129Z,4.07
2023-03-31T04:21:15.164Z,3.60
2023-03-31T04:23:46.562Z,3.65
2023-03-31T04:26:15.144Z,3.30
2023-03-31T04:28:46.506Z,2.92
2023-03-31T04:31:18.445Z,3.00
2023-03-31T04:33:46.190Z,3.78
2023-03-31T04:36:20.005Z,3.47
2023-03-31T04:38:50.487Z,2.55
2023-03-31T04:41:18.195Z,2.22
2023-03-31T04:43:45.750Z,2.28
2023-03-31T04:46:13.487Z,1.95
2023-03-31T04:48:40.960Z,1.60
2023-03-31T04:51:09.217Z,0.93
2023-03-31T04:53:36.945Z,1.55
2023-03-31T04:56:04.656Z,0.88
2023-03-31T04:58:32.398Z,0.80
2023-03-31T05:00:59.945Z,0.65
2023-03-31T05:03:27.655Z,1.05
2023-03-31T05:05:55.419Z,0.63
2023-03-31T05:08:22.873Z,0.63
2023-03-31T05:10:50.408Z,1.77
2023-03-31T05:13:17.845Z,0.40
2023-03-31T05:15:45.362Z,1.13
2023-03-31T05:18:12.823Z,0.52
2023-03-31T05:20:40.322Z,0.43
2023-03-31T05:23:07.976Z,0.65
2023-03-31T05:25:35.718Z,0.65
2023-03-31T05:28:03.352Z,0.45
2023-03-31T05:30:30.932Z,0.70
2023-03-31T05:32:58.403Z,0.70
2023-03-31T05:35:26.047Z,0.68
2023-03-31T05:37:53.506Z,0.57
2023-03-31T05:40:20.974Z,0.55
2023-03-31T05:42:48.422Z,0.52
2023-03-31T05:45:15.883Z,1.02
2023-03-31T05:47:43.385Z,0.57
2023-03-31T05:50:12.618Z,0.43
2023-03-31T05:52:42.086Z,0.73
2023-03-31T05:55:09.815Z,0.75
2023-03-31T05:57:37.403Z,0.45
2023-03-31T06:00:06.264Z,0.60
2023-03-31T06:02:33.985Z,0.65
2023-03-31T06:05:01.519Z,0.50
2023-03-31T06:07:29.181Z,0.60
2023-03-31T06:09:56.591Z,0.43
2023-03-31T06:12:24.016Z,0.55
2023-03-31T06:14:51.424Z,0.40
2023-03-31T06:17:18.876Z,0.68
2023-03-31T06:19:46.348Z,0.65
2023-03-31T06:22:13.808Z,0.30
2023-03-31T06:24:41.230Z,0.63
2023-03-31T06:27:08.646Z,0.38
2023-03-31T06:29:36.166Z,0.40
2023-03-31T06:32:05.059Z,0.30
2023-03-31T06:34:32.659Z,0.40
2023-03-31T06:37:00.326Z,0.30
2023-03-31T06:39:28.577Z,0.65
2023-03-31T06:41:56.207Z,0.55
2023-03-31T06:44:28.058Z,0.30
2023-03-31T06:46:55.643Z,0.30
2023-03-31T06:49:23.203Z,0.20
2023-03-31T06:51:50.780Z,0.57
2023-03-31T06:54:18.199Z,0.22
2023-03-31T06:56:45.728Z,0.30
2023-03-31T06:59:13.220Z,0.50
2023-03-31T07:01:42.448Z,0.45
2023-03-31T07:04:10.193Z,0.40
2023-03-31T07:06:40.627Z,0.35
2023-03-31T07:09:11.386Z,0.35
2023-03-31T07:11:38.865Z,0.38
2023-03-31T07:14:08.289Z,0.20
2023-03-31T07:16:38.336Z,1.35
2023-03-31T07:19:07.936Z,0.57
2023-03-31T07:21:35.378Z,0.50
2023-03-31T07:24:02.816Z,0.90
2023-03-31T07:26:30.331Z,0.40
2023-03-31T07:28:57.853Z,0.30
2023-03-31T07:31:25.413Z,0.40
2023-03-31T07:33:52.869Z,0.45
2023-03-31T07:36:20.722Z,0.20
2023-03-31T07:38:49.619Z,0.75
2023-03-31T07:41:18.766Z,0.40
2023-03-31T07:43:46.656Z,0.95
2023-03-31T07:46:14.819Z,0.40
2023-03-31T07:48:43.800Z,0.50
2023-03-31T07:51:11.247Z,0.40
2023-03-31T07:53:38.742Z,0.60
2023-03-31T07:56:06.365Z,0.20
2023-03-31T07:58:33.868Z,0.25
2023-03-31T08:01:01.918Z,0.20
2023-03-31T08:03:29.435Z,0.45
2023-03-31T08:05:56.973Z,0.40
2023-03-31T08:08:24.651Z,0.73
2023-03-31T08:10:52.388Z,0.63
2023-03-31T08:13:19.867Z,0.28
2023-03-31T08:15:47.318Z,0.30
2023-03-31T08:18:16.055Z,0.65
2023-03-31T08:20:43.567Z,0.30
2023-03-31T08:23:11.999Z,0.40
2023-03-31T08:25:39.458Z,0.20
2023-03-31T08:28:10.640Z,0.30
2023-03-31T08:30:39.110Z,0.30
2023-03-31T08:33:07.761Z,0.28
2023-03-31T08:35:35.635Z,0.40
2023-03-31T08:38:03.111Z,0.90
2023-03-31T08:40:31.538Z,0.32
2023-03-31T08:43:19.230Z,0.38
2023-03-31T08:45:48.560Z,0.32
2023-03-31T08:48:26.091Z,0.28
2023-03-31T08:50:56.451Z,0.20
2023-03-31T08:53:26.915Z,0.40
2023-03-31T08:55:54.838Z,0.30
2023-03-31T08:58:29.893Z,0.25
2023-03-31T09:01:17.070Z,0.40
2023-03-31T09:03:47.687Z,0.10
2023-03-31T09:08:44.525Z,0.35
2023-03-31T09:11:27.221Z,0.52
2023-03-31T09:14:01.398Z,0.30
2023-03-31T09:16:34.518Z,0.63
2023-03-31T09:19:02.693Z,0.30
2023-03-31T09:21:34.469Z,0.25
2023-03-31T09:24:05.938Z,0.20
2023-03-31T09:26:48.579Z,0.30
2023-03-31T09:29:24.304Z,0.10
2023-03-31T09:31:51.952Z,0.22
2023-03-31T09:34:27.637Z,0.25
2023-03-31T09:36:55.169Z,0.30
2023-03-31T09:39:22.670Z,0.20
2023-03-31T09:41:51.384Z,0.40
2023-03-31T09:44:37.510Z,0.30
2023-03-31T09:47:09.657Z,0.57
2023-03-31T09:49:40.203Z,0.40
2023-03-31T09:52:15.513Z,0.25
2023-03-31T09:54:51.694Z,0.47
2023-03-31T09:57:28.295Z,0.85
2023-03-31T10:00:23.489Z,0.88
2023-03-31T10:02:51.263Z,0.30
2023-03-31T10:05:43.156Z,0.20
2023-03-31T10:08:23.752Z,0.55
2023-03-31T10:10:52.707Z,0.20
2023-03-31T10:13:22.818Z,0.20
2023-03-31T10:15:53.289Z,0.20
2023-03-31T10:18:34.850Z,0.30
2023-03-31T10:21:03.241Z,0.22
2023-03-31T10:23:32.267Z,0.20
2023-03-31T10:26:00.631Z,0.80
2023-03-31T10:28:31.460Z,0.10
2023-03-31T10:33:30.612Z,0.40
2023-03-31T10:35:59.226Z,0.20
2023-03-31T10:38:37.574Z,1.20
2023-03-31T10:41:05.626Z,0.25
2023-03-31T10:43:43.523Z,0.10
2023-03-31T10:46:12.951Z,0.20
2023-03-31T10:48:42.182Z,0.20
2023-03-31T10:51:16.878Z,0.20
2023-03-31T10:53:47.429Z,0.30
2023-03-31T10:56:14.912Z,0.22
2023-03-31T10:59:10.144Z,0.35
2023-03-31T11:01:47.771Z,0.20
2023-03-31T11:04:29.247Z,0.20
2023-03-31T11:07:21.913Z,1.23
2023-03-31T11:10:07.825Z,0.20
2023-03-31T11:12:39.590Z,0.57
2023-03-31T11:15:18.785Z,0.52
2023-03-31T11:17:52.746Z,0.22
2023-03-31T11:20:25.637Z,0.63
2023-03-31T11:22:53.108Z,0.20
2023-03-31T11:25:23.538Z,0.20
2023-03-31T11:27:56.488Z,0.30
2023-03-31T11:30:37.481Z,0.32
2023-03-31T11:35:54.641Z,0.32
2023-03-31T11:38:31.404Z,0.10
2023-03-31T11:41:10.886Z,0.43
2023-03-31T11:44:00.469Z,0.30
2023-03-31T11:46:51.360Z,0.28
2023-03-31T11:49:39.291Z,0.30
2023-03-31T11:52:14.954Z,0.30
2023-03-31T11:55:02.947Z,0.25
2023-03-31T11:57:36.024Z,0.20
2023-03-31T12:00:07.363Z,0.30
2023-03-31T12:02:58.065Z,0.20
2023-03-31T12:05:27.395Z,0.30
2023-03-31T12:08:11.701Z,0.82
2023-03-31T12:10:42.185Z,0.20
2023-03-31T12:13:39.268Z,0.13
2023-03-31T12:16:16.099Z,0.30
2023-03-31T12:18:56.816Z,0.20
2023-03-31T12:21:26.224Z,0.10
2023-03-31T12:23:53.645Z,0.20
2023-03-31T12:26:39.914Z,0.22
2023-03-31T12:29:21.265Z,0.10
2023-03-31T12:31:49.321Z,0.10
2023-03-31T12:34:19.854Z,0.20
2023-03-31T12:36:55.723Z,0.20
2023-03-31T12:39:23.162Z,0.20
2023-03-31T12:41:53.407Z,0.68
2023-03-31T12:44:36.666Z,0.20
2023-03-31T12:47:11.070Z,0.20
2023-03-31T12:50:07.890Z,0.10
2023-03-31T12:52:51.926Z,0.28
2023-03-31T12:55:32.971Z,0.35
2023-03-31T12:58:19.465Z,0.20
2023-03-31T13:01:05.221Z,0.10
2023-03-31T13:03:37.608Z,0.30
2023-03-31T13:06:05.797Z,0.30
2023-03-31T13:08:50.012Z,0.30
2023-03-31T13:11:18.032Z,0.32
2023-03-31T13:14:00.649Z,0.45
2023-03-31T13:16:29.761Z,0.17
2023-03-31T13:18:57.565Z,0.30
2023-03-31T13:21:25.363Z,0.20
2023-03-31T13:23:53.632Z,0.20
2023-03-31T13:26:33.420Z,0.40
2023-03-31T13:29:11.627Z,0.38
2023-03-31T13:31:58.018Z,0.52
2023-03-31T13:34:26.054Z,0.20
2023-03-31T13:37:00.163Z,0.10
2023-03-31T13:39:50.829Z,0.30
2023-03-31T13:42:21.570Z,0.32
2023-03-31T13:45:08.002Z,0.20
2023-03-31T13:47:58.824Z,0.25
2023-03-31T13:50:37.977Z,0.10
2023-03-31T13:53:14.609Z,0.38
2023-03-31T13:55:55.403Z,0.43
2023-03-31T13:58:35.297Z,0.30
2023-03-31T14:01:32.902Z,0.20
2023-03-31T14:04:03.538Z,0.30
2023-03-31T14:06:49.520Z,0.10
2023-03-31T14:09:29.813Z,0.13
2023-03-31T14:11:59.965Z,0.20
2023-03-31T14:14:29.760Z,0.10
2023-03-31T14:17:04.151Z,0.10
2023-03-31T14:19:31.587Z,0.20
2023-03-31T14:22:20.956Z,0.20
2023-03-31T14:24:55.279Z,0.20
2023-03-31T14:27:39.214Z,0.20
2023-03-31T14:30:10.521Z,0.30
2023-03-31T14:35:05.995Z,0.28
2023-03-31T14:37:34.991Z,0.20
2023-03-31T14:40:03.804Z,0.20
2023-03-31T14:42:38.239Z,0.20
2023-03-31T14:45:09.854Z,0.40
2023-03-31T14:47:37.367Z,0.40
2023-03-31T14:50:17.785Z,0.20
2023-03-31T14:52:49.969Z,0.20
2023-03-31T14:55:18.306Z,0.17
2023-03-31T14:57:47.563Z,0.30
2023-03-31T15:00:17.542Z,0.35
2023-03-31T15:02:46.049Z,0.10
2023-03-31T15:05:23.061Z,0.20
2023-03-31T15:07:50.645Z,0.20
2023-03-31T15:10:22.013Z,0.20
2023-03-31T15:12:51.655Z,0.20
2023-03-31T15:15:21.041Z,0.20
2023-03-31T15:17:48.802Z,0.20
2023-03-31T15:20:29.376Z,0.20
2023-03-31T15:22:57.668Z,0.17
2023-03-31T15:25:27.453Z,0.25
2023-03-31T15:27:58.041Z,0.20
2023-03-31T15:30:26.978Z,0.10
2023-03-31T15:32:59.053Z,0.30
2023-03-31T15:35:36.208Z,0.25
2023-03-31T15:38:05.731Z,0.10
2023-03-31T15:40:39.395Z,0.28
2023-03-31T15:43:24.374Z,0.38
2023-03-31T15:46:02.595Z,0.50
2023-03-31T15:48:34.430Z,0.30
2023-03-31T15:51:18.363Z,0.20
2023-03-31T15:53:51.066Z,0.20
2023-03-31T15:56:31.466Z,0.50
2023-03-31T15:59:03.224Z,0.20
2023-03-31T16:01:41.637Z,0.20
2023-03-31T16:04:11.260Z,0.20
2023-03-31T16:06:54.062Z,0.20
2023-03-31T16:09:28.781Z,0.38
2023-03-31T16:11:57.722Z,0.10
2023-03-31T16:14:31.462Z,0.32
2023-03-31T16:17:07.751Z,0.10
2023-03-31T16:19:53.402Z,0.30
2023-03-31T16:22:23.122Z,0.20
2023-03-31T16:24:51.101Z,0.20
2023-03-31T16:27:18.822Z,0.10
2023-03-31T16:29:47.382Z,0.30
2023-03-31T16:32:20.563Z,0.20
2023-03-31T16:35:01.911Z,0.20
2023-03-31T16:37:29.800Z,0.30
2023-03-31T16:39:57.724Z,0.20
2023-03-31T16:42:25.963Z,0.30
2023-03-31T16:45:09.354Z,0.40
2023-03-31T16:47:44.558Z,0.30
2023-03-31T16:50:15.268Z,0.32
2023-03-31T16:52:43.047Z,0.20
2023-03-31T16:55:10.490Z,0.30
2023-03-31T16:57:38.007Z,0.22
2023-03-31T17:00:05.762Z,0.17
2023-03-31T17:02:33.328Z,0.20
2023-03-31T17:07:48.706Z,0.68
2023-03-31T17:10:16.271Z,0.30
2023-03-31T17:12:43.717Z,0.20
2023-03-31T17:15:11.507Z,0.28
2023-03-31T17:17:39.335Z,0.38
2023-03-31T17:20:07.943Z,0.30
2023-03-31T17:22:36.325Z,0.30
2023-03-31T17:25:04.037Z,0.30
2023-03-31T17:27:32.114Z,0.40
2023-03-31T17:29:59.609Z,0.20
2023-03-31T17:32:27.567Z,0.30
2023-03-31T17:34:55.109Z,0.20
2023-03-31T17:37:22.672Z,0.40
2023-03-31T17:39:50.591Z,0.20
2023-03-31T17:42:20.156Z,0.52
2023-03-31T17:44:50.052Z,0.22
2023-03-31T17:47:18.047Z,0.20
2023-03-31T17:49:45.555Z,0.20
2023-03-31T17:52:13.408Z,0.10
2023-03-31T17:54:41.774Z,0.25
2023-03-31T17:57:09.541Z,0.20
2023-03-31T17:59:37.722Z,0.20
2023-03-31T18:02:06.537Z,0.20
2023-03-31T18:04:34.374Z,0.40
2023-03-31T18:07:01.928Z,0.20
2023-03-31T18:09:29.760Z,0.20
2023-03-31T18:12:07.629Z,0.50
2023-03-31T18:14:35.308Z,0.22
2023-03-31T18:17:04.226Z,0.10
2023-03-31T18:19:34.976Z,0.20
2023-03-31T18:22:03.665Z,0.40
2023-03-31T18:24:33.243Z,0.20
2023-03-31T18:27:01.479Z,0.20
2023-03-31T18:29:32.060Z,0.20
2023-03-31T18:32:03.367Z,0.20
2023-03-31T18:34:31.096Z,0.20
2023-03-31T18:37:06.128Z,0.30
2023-03-31T18:39:34.996Z,0.20
2023-03-31T18:42:08.815Z,0.20
2023-03-31T18:44:36.469Z,0.20
2023-03-31T18:47:04.040Z,0.20
2023-03-31T18:49:31.696Z,0.20
2023-03-31T18:52:06.892Z,0.10
2023-03-31T18:54:35.573Z,0.20
2023-03-31T18:57:03.336Z,0.22
2023-03-31T18:59:33.299Z,0.60
2023-03-31T19:02:00.993Z,0.85
2023-03-31T19:04:30.040Z,0.38
2023-03-31T19:06:57.761Z,0.20
2023-03-31T19:09:27.658Z,0.38
2023-03-31T19:11:58.305Z,0.85
2023-03-31T19:14:25.885Z,0.25
2023-03-31T19:16:56.646Z,0.20
2023-03-31T19:19:24.621Z,0.45
2023-03-31T19:21:52.719Z,0.30
2023-03-31T19:24:20.388Z,0.20
2023-03-31T19:26:47.964Z,0.30
2023-03-31T19:29:15.499Z,0.20
2023-03-31T19:31:44.981Z,0.20
2023-03-31T19:34:12.648Z,0.10
2023-03-31T19:36:40.518Z,0.85
2023-03-31T19:39:08.088Z,0.20
2023-03-31T19:41:36.190Z,0.22
2023-03-31T19:44:03.793Z,0.10
2023-03-31T19:46:31.514Z,0.47
2023-03-31T19:49:00.131Z,0.17
2023-03-31T19:51:29.104Z,0.35
2023-03-31T19:53:57.472Z,0.30
2023-03-31T19:56:25.623Z,0.30
2023-03-31T19:58:53.507Z,0.20
2023-03-31T20:01:25.188Z,0.30
2023-03-31T20:03:53.529Z,1.20
2023-03-31T20:06:22.679Z,0.40
2023-03-31T20:08:52.959Z,0.40
2023-03-31T20:11:20.766Z,0.47
2023-03-31T20:13:48.440Z,0.20
2023-03-31T20:16:19.833Z,0.28
2023-03-31T20:18:52.291Z,0.20
2023-03-31T20:21:20.610Z,0.55
2023-03-31T20:23:48.404Z,0.10
2023-03-31T20:26:17.428Z,0.40
2023-03-31T20:28:45.290Z,0.50
2023-03-31T20:31:14.194Z,0.20
2023-03-31T20:33:43.183Z,0.10
2023-03-31T20:36:11.967Z,0.20
2023-03-31T20:38:40.357Z,0.20
2023-03-31T20:41:08.385Z,0.20
2023-03-31T20:43:36.664Z,0.30
2023-03-31T20:46:05.107Z,0.20
2023-03-31T20:48:34.790Z,0.20
2023-03-31T20:51:02.629Z,0.20
2023-03-31T20:53:30.236Z,0.30
2023-03-31T20:55:58.115Z,0.30
2023-03-31T20:58:25.642Z,0.20
2023-03-31T21:00:58.013Z,0.20
2023-03-31T21:03:26.102Z,0.10
2023-03-31T21:05:53.854Z,0.30
2023-03-31T21:08:21.476Z,0.98
2023-03-31T21:10:49.017Z,0.30
2023-03-31T21:13:17.901Z,0.15
2023-03-31T21:15:50.633Z,0.20
2023-03-31T21:18:18.172Z,0.30
2023-03-31T21:20:52.431Z,0.38
2023-03-31T21:23:20.331Z,0.20
2023-03-31T21:25:52.590Z,0.20
2023-03-31T21:28:21.354Z,0.22
2023-03-31T21:30:56.652Z,0.20
2023-03-31T21:33:25.181Z,0.55
2023-03-31T21:35:53.621Z,0.20
2023-03-31T21:38:21.391Z,0.20
2023-03-31T21:40:51.580Z,0.30
2023-03-31T21:43:20.298Z,0.10
2023-03-31T21:45:48.407Z,0.20
2023-03-31T21:48:16.857Z,0.10
2023-03-31T21:50:46.062Z,0.20
2023-03-31T21:53:14.379Z,0.20
2023-03-31T21:55:42.099Z,0.30
2023-03-31T21:58:10.614Z,0.35
2023-03-31T22:00:38.105Z,0.20
2023-03-31T22:03:22.421Z,0.43
2023-03-31T22:05:53.943Z,0.35
2023-03-31T22:08:21.532Z,0.30
2023-03-31T22:10:53.063Z,0.20
2023-03-31T22:13:21.362Z,0.20
2023-03-31T22:15:49.288Z,0.55
2023-03-31T22:18:17.468Z,0.20
2023-03-31T22:20:45.231Z,0.73
2023-03-31T22:23:12.744Z,0.50
2023-03-31T22:25:40.335Z,0.63
2023-03-31T22:28:08.939Z,1.20
2023-03-31T22:30:36.933Z,1.08
2023-03-31T22:33:04.750Z,0.50
2023-03-31T22:35:32.628Z,0.25
2023-03-31T22:38:01.558Z,0.30
2023-03-31T22:40:30.109Z,0.90
2023-03-31T22:42:58.497Z,0.20
2023-03-31T22:45:25.965Z,0.75
2023-03-31T22:47:53.672Z,0.30
2023-03-31T22:50:21.579Z,0.35
2023-03-31T22:52:49.161Z,0.35
2023-03-31T22:55:17.187Z,0.43
2023-03-31T22:57:44.968Z,0.60
2023-03-31T23:00:13.767Z,0.30
2023-03-31T23:02:42.152Z,0.30
2023-03-31T23:05:10.411Z,0.35
2023-03-31T23:07:38.479Z,0.40
2023-03-31T23:10:06.330Z,0.40
2023-03-31T23:12:33.978Z,0.50
2023-03-31T23:15:01.922Z,0.32
2023-03-31T23:17:31.227Z,0.28
2023-03-31T23:19:58.872Z,0.20
2023-03-31T23:22:26.484Z,0.40
2023-03-31T23:24:54.118Z,0.30
2023-03-31T23:27:22.078Z,0.20
2023-03-31T23:29:49.657Z,0.40
2023-03-31T23:32:17.462Z,0.20
2023-03-31T23:34:45.068Z,0.20
2023-03-31T23:37:13.475Z,0.20
2023-03-31T23:39:41.836Z,0.50
2023-03-31T23:42:10.513Z,0.20
2023-03-31T23:44:38.181Z,0.20
2023-03-31T23:47:06.490Z,0.20
2023-03-31T23:49:34.052Z,0.30
2023-03-31T23:52:01.620Z,0.20
2023-03-31T23:54:29.227Z,0.30
2023-03-31T23:56:56.930Z,0.20
2023-03-31T23:59:24.499Z,0.20
